This is the latest recevied weather packets stored in our database for station/object F5NTS. If no packets are shown the sender has not sent any weather packets the latest 10 day(s).
| Time | Temp. | Humidity | Pressure | Rain* | Wind** | Luminosity | Snow |
|---|---|---|---|---|---|---|---|
| 1777701904 | 12.22° C | 87% | 1015.8 hPa | 0 mm | - | - | - |
| 1777698304 | 11.67° C | 85% | 1015.4 hPa | 0 mm | - | - | - |
| 1777698004 | 11.67° C | 85% | 1015.4 hPa | 0 mm | - | - | - |
| 1777697104 | 11.67° C | 85% | 1015.6 hPa | 0 mm | - | - | - |
| 1777696805 | 11.67° C | 84% | 1015.7 hPa | 0 mm | - | - | - |
| 1777696504 | 11.67° C | 84% | 1015.7 hPa | 0 mm | - | - | - |
| 1777694705 | 11.11° C | 83% | 1015.6 hPa | 0 mm | - | - | - |
| 1777693804 | 11.67° C | 83% | 1015.9 hPa | 0 mm | - | - | - |
| 1777689605 | 12.78° C | 80% | 1016.3 hPa | 0 mm | - | - | - |
| 1777688705 | 12.78° C | 79% | 1016.4 hPa | 0 mm | - | - | - |
| 1777688404 | 12.78° C | 78% | 1016.4 hPa | 0 mm | - | - | - |
| 1777688104 | 12.78° C | 78% | 1016.4 hPa | 0 mm | - | - | - |
| 1777678504 | 12.22° C | 67% | 1016.5 hPa | 0 mm | - | - | - |
| 1777676105 | 12.78° C | 63% | 1017.2 hPa | 0 mm | - | - | - |
| 1777673104 | 13.33° C | 60% | 1017.3 hPa | 0 mm | - | - | - |
| 1777671904 | 12.22° C | 61% | 1017.6 hPa | 0 mm | - | - | - |
| 1777671604 | 11.67° C | 61% | 1017.2 hPa | 0 mm | - | - | - |
| 1777671304 | 11.67° C | 60% | 1017.2 hPa | 0 mm | - | - | - |
| 1777670404 | 11.67° C | 59% | 1017.3 hPa | 0 mm | - | - | - |
| 1777670104 | 11.67° C | 58% | 1017.3 hPa | 0 mm | - | - | - |
| 1777668904 | 12.78° C | 55% | 1017.3 hPa | 0 mm | - | - | - |
| 1777666204 | 13.89° C | 50% | 1017.2 hPa | 0 mm | - | - | - |
| 1777665905 | 13.89° C | 49% | 1017.2 hPa | 0 mm | - | - | - |
| 1777661404 | 18.89° C | 36% | 1016.6 hPa | 0 mm | - | - | - |
| 1777659904 | 20.56° C | 33% | 1016.8 hPa | 0 mm | - | - | - |
* Rain latest hour (hover to see other rain measurements)
** Current wind speed in m/s (hover to see current wind gust speed)